sensor_id;sensor_type;location;lat;lon;timestamp;P1;durP1;ratioP1;P2;durP2;ratioP2
15067;SDS011;7633;60.024;18.770;2022-09-09T00:00:46;3.00;;;1.07;;
15067;SDS011;7633;60.024;18.770;2022-09-09T00:03:19;1.70;;;1.20;;
15067;SDS011;7633;60.024;18.770;2022-09-09T00:08:20;1.10;;;1.00;;
15067;SDS011;7633;60.024;18.770;2022-09-09T00:10:53;2.27;;;1.30;;
15067;SDS011;7633;60.024;18.770;2022-09-09T00:13:37;1.30;;;1.20;;
15067;SDS011;7633;60.024;18.770;2022-09-09T00:16:13;0.93;;;0.93;;
15067;SDS011;7633;60.024;18.770;2022-09-09T00:21:13;1.27;;;1.17;;
15067;SDS011;7633;60.024;18.770;2022-09-09T00:23:48;1.47;;;0.90;;
15067;SDS011;7633;60.024;18.770;2022-09-09T00:28:46;1.20;;;1.00;;
15067;SDS011;7633;60.024;18.770;2022-09-09T00:31:15;1.27;;;1.13;;
15067;SDS011;7633;60.024;18.770;2022-09-09T00:33:43;2.17;;;1.10;;
15067;SDS011;7633;60.024;18.770;2022-09-09T00:36:13;0.97;;;0.97;;
15067;SDS011;7633;60.024;18.770;2022-09-09T00:39:02;0.87;;;0.80;;
15067;SDS011;7633;60.024;18.770;2022-09-09T00:49:46;1.00;;;1.00;;
15067;SDS011;7633;60.024;18.770;2022-09-09T00:57:31;1.30;;;1.20;;
15067;SDS011;7633;60.024;18.770;2022-09-09T01:00:16;1.00;;;0.90;;
15067;SDS011;7633;60.024;18.770;2022-09-09T01:07:58;1.40;;;1.30;;
15067;SDS011;7633;60.024;18.770;2022-09-09T01:10:41;1.13;;;1.03;;
15067;SDS011;7633;60.024;18.770;2022-09-09T01:13:13;1.10;;;1.10;;
15067;SDS011;7633;60.024;18.770;2022-09-09T01:15:40;1.27;;;1.17;;
15067;SDS011;7633;60.024;18.770;2022-09-09T01:18:08;1.37;;;1.20;;
15067;SDS011;7633;60.024;18.770;2022-09-09T01:20:45;1.00;;;1.00;;
15067;SDS011;7633;60.024;18.770;2022-09-09T01:28:35;1.20;;;1.20;;
15067;SDS011;7633;60.024;18.770;2022-09-09T01:31:03;1.30;;;1.20;;
15067;SDS011;7633;60.024;18.770;2022-09-09T01:33:29;1.20;;;1.10;;
15067;SDS011;7633;60.024;18.770;2022-09-09T01:35:57;1.10;;;1.10;;
15067;SDS011;7633;60.024;18.770;2022-09-09T01:38:25;1.40;;;1.30;;
15067;SDS011;7633;60.024;18.770;2022-09-09T01:40:51;1.07;;;1.07;;
15067;SDS011;7633;60.024;18.770;2022-09-09T01:43:19;1.10;;;1.10;;
15067;SDS011;7633;60.024;18.770;2022-09-09T01:45:45;1.37;;;1.00;;
15067;SDS011;7633;60.024;18.770;2022-09-09T01:48:12;1.10;;;1.00;;
15067;SDS011;7633;60.024;18.770;2022-09-09T01:50:37;0.90;;;0.90;;
15067;SDS011;7633;60.024;18.770;2022-09-09T01:53:03;0.90;;;0.90;;
15067;SDS011;7633;60.024;18.770;2022-09-09T01:56:11;1.40;;;1.00;;
15067;SDS011;7633;60.024;18.770;2022-09-09T02:01:02;0.80;;;0.80;;
15067;SDS011;7633;60.024;18.770;2022-09-09T02:03:33;1.00;;;1.00;;
15067;SDS011;7633;60.024;18.770;2022-09-09T02:08:35;1.10;;;1.00;;
15067;SDS011;7633;60.024;18.770;2022-09-09T02:11:07;1.10;;;1.00;;
15067;SDS011;7633;60.024;18.770;2022-09-09T02:13:35;1.50;;;1.10;;
15067;SDS011;7633;60.024;18.770;2022-09-09T02:16:07;2.20;;;0.93;;
15067;SDS011;7633;60.024;18.770;2022-09-09T02:21:26;2.17;;;1.10;;
15067;SDS011;7633;60.024;18.770;2022-09-09T02:23:53;1.13;;;1.03;;
15067;SDS011;7633;60.024;18.770;2022-09-09T02:26:21;1.07;;;1.00;;
15067;SDS011;7633;60.024;18.770;2022-09-09T02:31:15;1.83;;;1.10;;
15067;SDS011;7633;60.024;18.770;2022-09-09T02:33:44;1.93;;;1.03;;
15067;SDS011;7633;60.024;18.770;2022-09-09T02:36:10;1.03;;;1.00;;
15067;SDS011;7633;60.024;18.770;2022-09-09T02:38:38;1.70;;;1.00;;
15067;SDS011;7633;60.024;18.770;2022-09-09T02:41:05;0.90;;;0.90;;
15067;SDS011;7633;60.024;18.770;2022-09-09T02:43:32;1.10;;;1.00;;
15067;SDS011;7633;60.024;18.770;2022-09-09T02:46:21;0.90;;;0.90;;
15067;SDS011;7633;60.024;18.770;2022-09-09T02:48:59;1.00;;;1.00;;
15067;SDS011;7633;60.024;18.770;2022-09-09T02:53:54;1.20;;;1.10;;
15067;SDS011;7633;60.024;18.770;2022-09-09T02:56:27;1.10;;;1.00;;
15067;SDS011;7633;60.024;18.770;2022-09-09T02:59:02;1.10;;;1.00;;
15067;SDS011;7633;60.024;18.770;2022-09-09T03:01:28;0.83;;;0.83;;
15067;SDS011;7633;60.024;18.770;2022-09-09T03:03:53;0.90;;;0.90;;
15067;SDS011;7633;60.024;18.770;2022-09-09T03:06:20;1.27;;;0.93;;
15067;SDS011;7633;60.024;18.770;2022-09-09T03:08:45;1.20;;;1.10;;
15067;SDS011;7633;60.024;18.770;2022-09-09T03:11:11;0.90;;;0.90;;
15067;SDS011;7633;60.024;18.770;2022-09-09T03:13:36;1.07;;;1.00;;
15067;SDS011;7633;60.024;18.770;2022-09-09T03:16:03;1.10;;;1.00;;
15067;SDS011;7633;60.024;18.770;2022-09-09T03:18:29;0.93;;;0.93;;
15067;SDS011;7633;60.024;18.770;2022-09-09T03:20:54;0.80;;;0.80;;
15067;SDS011;7633;60.024;18.770;2022-09-09T03:23:20;0.93;;;0.93;;
15067;SDS011;7633;60.024;18.770;2022-09-09T03:25:47;0.80;;;0.80;;
15067;SDS011;7633;60.024;18.770;2022-09-09T03:28:13;1.30;;;1.20;;
15067;SDS011;7633;60.024;18.770;2022-09-09T03:30:38;0.80;;;0.80;;
15067;SDS011;7633;60.024;18.770;2022-09-09T03:33:04;0.80;;;0.80;;
15067;SDS011;7633;60.024;18.770;2022-09-09T03:35:29;1.73;;;0.90;;
15067;SDS011;7633;60.024;18.770;2022-09-09T03:37:55;1.47;;;1.00;;
15067;SDS011;7633;60.024;18.770;2022-09-09T03:40:21;0.90;;;0.90;;
15067;SDS011;7633;60.024;18.770;2022-09-09T03:42:46;2.20;;;0.90;;
15067;SDS011;7633;60.024;18.770;2022-09-09T03:45:13;1.03;;;1.00;;
15067;SDS011;7633;60.024;18.770;2022-09-09T03:47:38;1.30;;;0.90;;
15067;SDS011;7633;60.024;18.770;2022-09-09T03:50:05;1.13;;;1.07;;
15067;SDS011;7633;60.024;18.770;2022-09-09T03:52:37;0.70;;;0.70;;
15067;SDS011;7633;60.024;18.770;2022-09-09T03:55:03;0.80;;;0.80;;
15067;SDS011;7633;60.024;18.770;2022-09-09T03:57:29;2.30;;;1.00;;
15067;SDS011;7633;60.024;18.770;2022-09-09T03:59:55;1.00;;;1.00;;
15067;SDS011;7633;60.024;18.770;2022-09-09T04:02:20;1.20;;;0.97;;
15067;SDS011;7633;60.024;18.770;2022-09-09T04:04:46;1.10;;;1.00;;
15067;SDS011;7633;60.024;18.770;2022-09-09T04:07:12;1.00;;;1.00;;
15067;SDS011;7633;60.024;18.770;2022-09-09T04:09:37;1.60;;;1.07;;
15067;SDS011;7633;60.024;18.770;2022-09-09T04:12:03;0.83;;;0.80;;
15067;SDS011;7633;60.024;18.770;2022-09-09T04:14:29;0.90;;;0.90;;
15067;SDS011;7633;60.024;18.770;2022-09-09T04:16:54;0.80;;;0.80;;
15067;SDS011;7633;60.024;18.770;2022-09-09T04:19:21;0.80;;;0.80;;
15067;SDS011;7633;60.024;18.770;2022-09-09T04:21:46;0.90;;;0.90;;
15067;SDS011;7633;60.024;18.770;2022-09-09T04:24:15;1.83;;;1.00;;
15067;SDS011;7633;60.024;18.770;2022-09-09T04:26:41;0.97;;;0.90;;
15067;SDS011;7633;60.024;18.770;2022-09-09T04:29:07;0.93;;;0.80;;
15067;SDS011;7633;60.024;18.770;2022-09-09T04:31:32;0.60;;;0.60;;
15067;SDS011;7633;60.024;18.770;2022-09-09T04:33:58;1.10;;;1.00;;
15067;SDS011;7633;60.024;18.770;2022-09-09T04:36:27;1.30;;;1.00;;
15067;SDS011;7633;60.024;18.770;2022-09-09T04:38:52;2.00;;;0.90;;
15067;SDS011;7633;60.024;18.770;2022-09-09T04:41:18;0.93;;;0.93;;
15067;SDS011;7633;60.024;18.770;2022-09-09T04:43:43;1.43;;;0.97;;
15067;SDS011;7633;60.024;18.770;2022-09-09T04:46:09;1.00;;;0.90;;
15067;SDS011;7633;60.024;18.770;2022-09-09T04:48:35;0.80;;;0.80;;
15067;SDS011;7633;60.024;18.770;2022-09-09T04:51:02;1.43;;;0.80;;
15067;SDS011;7633;60.024;18.770;2022-09-09T04:53:29;0.80;;;0.80;;
15067;SDS011;7633;60.024;18.770;2022-09-09T04:56:02;0.97;;;0.87;;
15067;SDS011;7633;60.024;18.770;2022-09-09T04:58:27;1.53;;;0.97;;
15067;SDS011;7633;60.024;18.770;2022-09-09T05:00:53;1.27;;;0.70;;
15067;SDS011;7633;60.024;18.770;2022-09-09T05:03:18;1.60;;;1.00;;
15067;SDS011;7633;60.024;18.770;2022-09-09T05:05:44;0.97;;;0.90;;
15067;SDS011;7633;60.024;18.770;2022-09-09T05:08:10;0.70;;;0.70;;
15067;SDS011;7633;60.024;18.770;2022-09-09T05:10:37;0.80;;;0.80;;
15067;SDS011;7633;60.024;18.770;2022-09-09T05:13:02;0.93;;;0.90;;
15067;SDS011;7633;60.024;18.770;2022-09-09T05:15:27;0.80;;;0.80;;
15067;SDS011;7633;60.024;18.770;2022-09-09T05:17:56;0.90;;;0.90;;
15067;SDS011;7633;60.024;18.770;2022-09-09T05:20:22;1.00;;;0.90;;
15067;SDS011;7633;60.024;18.770;2022-09-09T05:22:47;0.90;;;0.87;;
15067;SDS011;7633;60.024;18.770;2022-09-09T05:25:12;0.70;;;0.70;;
15067;SDS011;7633;60.024;18.770;2022-09-09T05:27:38;0.80;;;0.80;;
15067;SDS011;7633;60.024;18.770;2022-09-09T05:30:04;1.33;;;0.87;;
15067;SDS011;7633;60.024;18.770;2022-09-09T05:32:30;0.80;;;0.80;;
15067;SDS011;7633;60.024;18.770;2022-09-09T05:34:57;1.03;;;0.77;;
15067;SDS011;7633;60.024;18.770;2022-09-09T05:37:24;0.87;;;0.70;;
15067;SDS011;7633;60.024;18.770;2022-09-09T05:39:49;1.17;;;1.00;;
15067;SDS011;7633;60.024;18.770;2022-09-09T05:42:15;1.50;;;0.80;;
15067;SDS011;7633;60.024;18.770;2022-09-09T05:44:40;1.20;;;0.93;;
15067;SDS011;7633;60.024;18.770;2022-09-09T05:47:07;1.03;;;0.93;;
15067;SDS011;7633;60.024;18.770;2022-09-09T05:49:33;1.00;;;1.00;;
15067;SDS011;7633;60.024;18.770;2022-09-09T05:51:59;0.90;;;0.90;;
15067;SDS011;7633;60.024;18.770;2022-09-09T05:54:24;0.87;;;0.87;;
15067;SDS011;7633;60.024;18.770;2022-09-09T05:56:50;1.10;;;1.00;;
15067;SDS011;7633;60.024;18.770;2022-09-09T05:59:16;0.80;;;0.80;;
15067;SDS011;7633;60.024;18.770;2022-09-09T06:01:41;1.77;;;0.83;;
15067;SDS011;7633;60.024;18.770;2022-09-09T06:04:07;0.80;;;0.80;;
15067;SDS011;7633;60.024;18.770;2022-09-09T06:06:34;1.43;;;0.80;;
15067;SDS011;7633;60.024;18.770;2022-09-09T06:09:05;0.70;;;0.70;;
15067;SDS011;7633;60.024;18.770;2022-09-09T06:11:35;1.83;;;1.10;;
15067;SDS011;7633;60.024;18.770;2022-09-09T06:14:02;1.27;;;0.90;;
15067;SDS011;7633;60.024;18.770;2022-09-09T06:16:28;0.60;;;0.60;;
15067;SDS011;7633;60.024;18.770;2022-09-09T06:18:54;1.27;;;0.70;;
15067;SDS011;7633;60.024;18.770;2022-09-09T06:21:27;1.40;;;0.57;;
15067;SDS011;7633;60.024;18.770;2022-09-09T06:23:53;1.43;;;0.57;;
15067;SDS011;7633;60.024;18.770;2022-09-09T06:28:47;1.83;;;0.60;;
15067;SDS011;7633;60.024;18.770;2022-09-09T06:31:14;1.33;;;0.63;;
15067;SDS011;7633;60.024;18.770;2022-09-09T06:33:41;0.90;;;0.57;;
15067;SDS011;7633;60.024;18.770;2022-09-09T06:36:07;0.50;;;0.50;;
15067;SDS011;7633;60.024;18.770;2022-09-09T06:38:35;0.50;;;0.50;;
15067;SDS011;7633;60.024;18.770;2022-09-09T06:41:01;0.80;;;0.70;;
15067;SDS011;7633;60.024;18.770;2022-09-09T06:43:28;0.60;;;0.50;;
15067;SDS011;7633;60.024;18.770;2022-09-09T06:48:19;1.17;;;0.87;;
15067;SDS011;7633;60.024;18.770;2022-09-09T06:50:44;0.87;;;0.60;;
15067;SDS011;7633;60.024;18.770;2022-09-09T06:53:10;0.70;;;0.60;;
15067;SDS011;7633;60.024;18.770;2022-09-09T06:55:35;0.47;;;0.47;;
15067;SDS011;7633;60.024;18.770;2022-09-09T06:58:01;3.07;;;0.60;;
15067;SDS011;7633;60.024;18.770;2022-09-09T07:00:28;0.40;;;0.40;;
15067;SDS011;7633;60.024;18.770;2022-09-09T07:02:55;0.40;;;0.40;;
15067;SDS011;7633;60.024;18.770;2022-09-09T07:05:20;0.93;;;0.50;;
15067;SDS011;7633;60.024;18.770;2022-09-09T07:07:46;0.50;;;0.43;;
15067;SDS011;7633;60.024;18.770;2022-09-09T07:10:11;0.50;;;0.43;;
15067;SDS011;7633;60.024;18.770;2022-09-09T07:12:37;0.87;;;0.60;;
15067;SDS011;7633;60.024;18.770;2022-09-09T07:15:02;0.40;;;0.40;;
15067;SDS011;7633;60.024;18.770;2022-09-09T07:17:29;0.53;;;0.50;;
15067;SDS011;7633;60.024;18.770;2022-09-09T07:19:54;1.63;;;0.47;;
15067;SDS011;7633;60.024;18.770;2022-09-09T07:22:19;0.63;;;0.50;;
15067;SDS011;7633;60.024;18.770;2022-09-09T07:24:45;2.37;;;0.50;;
15067;SDS011;7633;60.024;18.770;2022-09-09T07:27:10;0.40;;;0.40;;
15067;SDS011;7633;60.024;18.770;2022-09-09T07:29:36;0.33;;;0.33;;
15067;SDS011;7633;60.024;18.770;2022-09-09T07:32:01;0.73;;;0.60;;
15067;SDS011;7633;60.024;18.770;2022-09-09T07:34:27;1.23;;;0.80;;
15067;SDS011;7633;60.024;18.770;2022-09-09T07:36:53;0.70;;;0.60;;
15067;SDS011;7633;60.024;18.770;2022-09-09T07:39:18;1.30;;;0.70;;
15067;SDS011;7633;60.024;18.770;2022-09-09T07:41:45;0.87;;;0.77;;
15067;SDS011;7633;60.024;18.770;2022-09-09T07:44:12;1.30;;;0.67;;
15067;SDS011;7633;60.024;18.770;2022-09-09T07:46:39;0.77;;;0.60;;
15067;SDS011;7633;60.024;18.770;2022-09-09T07:49:04;0.53;;;0.50;;
15067;SDS011;7633;60.024;18.770;2022-09-09T07:51:31;1.63;;;0.40;;
15067;SDS011;7633;60.024;18.770;2022-09-09T07:53:58;1.03;;;0.50;;
15067;SDS011;7633;60.024;18.770;2022-09-09T07:56:24;0.50;;;0.43;;
15067;SDS011;7633;60.024;18.770;2022-09-09T07:58:50;1.80;;;0.70;;
15067;SDS011;7633;60.024;18.770;2022-09-09T08:03:43;1.60;;;0.60;;
15067;SDS011;7633;60.024;18.770;2022-09-09T08:06:09;0.63;;;0.50;;
15067;SDS011;7633;60.024;18.770;2022-09-09T08:08:35;1.37;;;0.50;;
15067;SDS011;7633;60.024;18.770;2022-09-09T08:11:05;1.80;;;0.60;;
15067;SDS011;7633;60.024;18.770;2022-09-09T08:13:33;1.07;;;0.50;;
15067;SDS011;7633;60.024;18.770;2022-09-09T08:16:32;2.10;;;0.50;;
15067;SDS011;7633;60.024;18.770;2022-09-09T08:18:50;0.73;;;0.73;;
15067;SDS011;7633;60.024;18.770;2022-09-09T08:21:17;3.77;;;1.60;;
15067;SDS011;7633;60.024;18.770;2022-09-09T08:23:44;2.73;;;1.20;;
15067;SDS011;7633;60.024;18.770;2022-09-09T08:26:12;2.60;;;1.63;;
15067;SDS011;7633;60.024;18.770;2022-09-09T08:28:38;6.67;;;2.40;;
15067;SDS011;7633;60.024;18.770;2022-09-09T08:31:48;6.07;;;3.23;;
15067;SDS011;7633;60.024;18.770;2022-09-09T08:33:54;6.37;;;3.40;;
15067;SDS011;7633;60.024;18.770;2022-09-09T08:36:20;4.68;;;2.15;;
15067;SDS011;7633;60.024;18.770;2022-09-09T08:38:47;2.00;;;1.40;;
15067;SDS011;7633;60.024;18.770;2022-09-09T08:43:41;4.90;;;2.20;;
15067;SDS011;7633;60.024;18.770;2022-09-09T08:46:20;2.07;;;0.83;;
15067;SDS011;7633;60.024;18.770;2022-09-09T08:48:56;2.57;;;1.07;;
15067;SDS011;7633;60.024;18.770;2022-09-09T08:51:27;1.43;;;0.70;;
15067;SDS011;7633;60.024;18.770;2022-09-09T08:53:55;1.20;;;0.73;;
15067;SDS011;7633;60.024;18.770;2022-09-09T08:56:23;1.13;;;0.60;;
15067;SDS011;7633;60.024;18.770;2022-09-09T08:58:49;1.83;;;0.50;;
15067;SDS011;7633;60.024;18.770;2022-09-09T09:06:25;0.90;;;0.50;;
15067;SDS011;7633;60.024;18.770;2022-09-09T09:11:20;0.53;;;0.50;;
15067;SDS011;7633;60.024;18.770;2022-09-09T09:13:55;1.23;;;0.50;;
15067;SDS011;7633;60.024;18.770;2022-09-09T09:16:23;1.13;;;0.70;;
15067;SDS011;7633;60.024;18.770;2022-09-09T09:18:52;1.45;;;0.70;;
15067;SDS011;7633;60.024;18.770;2022-09-09T09:21:39;0.50;;;0.50;;
15067;SDS011;7633;60.024;18.770;2022-09-09T09:24:03;0.63;;;0.52;;
15067;SDS011;7633;60.024;18.770;2022-09-09T09:26:35;1.58;;;0.60;;
15067;SDS011;7633;60.024;18.770;2022-09-09T09:29:12;1.48;;;0.70;;
15067;SDS011;7633;60.024;18.770;2022-09-09T09:31:38;0.68;;;0.60;;
15067;SDS011;7633;60.024;18.770;2022-09-09T09:34:04;1.55;;;0.55;;
15067;SDS011;7633;60.024;18.770;2022-09-09T09:36:39;0.80;;;0.70;;
15067;SDS011;7633;60.024;18.770;2022-09-09T09:39:05;1.45;;;1.30;;
15067;SDS011;7633;60.024;18.770;2022-09-09T09:41:38;1.15;;;0.52;;
15067;SDS011;7633;60.024;18.770;2022-09-09T09:44:05;0.75;;;0.60;;
15067;SDS011;7633;60.024;18.770;2022-09-09T09:46:31;1.38;;;0.60;;
15067;SDS011;7633;60.024;18.770;2022-09-09T09:48:57;0.50;;;0.40;;
15067;SDS011;7633;60.024;18.770;2022-09-09T09:51:23;0.73;;;0.57;;
15067;SDS011;7633;60.024;18.770;2022-09-09T09:53:50;1.05;;;0.50;;
15067;SDS011;7633;60.024;18.770;2022-09-09T09:56:25;1.58;;;0.50;;
15067;SDS011;7633;60.024;18.770;2022-09-09T09:58:51;1.13;;;0.45;;
15067;SDS011;7633;60.024;18.770;2022-09-09T10:04:35;0.40;;;0.40;;
15067;SDS011;7633;60.024;18.770;2022-09-09T10:06:36;0.65;;;0.50;;
15067;SDS011;7633;60.024;18.770;2022-09-09T10:09:26;0.65;;;0.60;;
15067;SDS011;7633;60.024;18.770;2022-09-09T10:15:28;0.38;;;0.38;;
15067;SDS011;7633;60.024;18.770;2022-09-09T10:20:36;1.75;;;0.40;;
15067;SDS011;7633;60.024;18.770;2022-09-09T10:23:23;0.65;;;0.50;;
15067;SDS011;7633;60.024;18.770;2022-09-09T10:26:16;0.50;;;0.50;;
15067;SDS011;7633;60.024;18.770;2022-09-09T10:33:49;1.13;;;0.85;;
15067;SDS011;7633;60.024;18.770;2022-09-09T10:38:48;0.57;;;0.50;;
15067;SDS011;7633;60.024;18.770;2022-09-09T10:57:54;1.17;;;0.60;;
15067;SDS011;7633;60.024;18.770;2022-09-09T10:59:55;1.05;;;0.65;;
15067;SDS011;7633;60.024;18.770;2022-09-09T11:02:29;0.57;;;0.50;;
15067;SDS011;7633;60.024;18.770;2022-09-09T11:07:40;0.65;;;0.40;;
15067;SDS011;7633;60.024;18.770;2022-09-09T11:10:11;0.60;;;0.60;;
15067;SDS011;7633;60.024;18.770;2022-09-09T11:12:39;0.55;;;0.50;;
15067;SDS011;7633;60.024;18.770;2022-09-09T11:15:16;0.60;;;0.50;;
15067;SDS011;7633;60.024;18.770;2022-09-09T11:17:50;1.80;;;0.55;;
15067;SDS011;7633;60.024;18.770;2022-09-09T11:20:17;0.60;;;0.60;;
15067;SDS011;7633;60.024;18.770;2022-09-09T11:22:44;0.40;;;0.40;;
15067;SDS011;7633;60.024;18.770;2022-09-09T11:38:29;1.30;;;0.50;;
15067;SDS011;7633;60.024;18.770;2022-09-09T11:40:58;0.90;;;0.60;;
15067;SDS011;7633;60.024;18.770;2022-09-09T11:43:29;0.50;;;0.50;;
15067;SDS011;7633;60.024;18.770;2022-09-09T11:45:55;0.40;;;0.40;;
15067;SDS011;7633;60.024;18.770;2022-09-09T11:50:59;1.50;;;0.60;;
15067;SDS011;7633;60.024;18.770;2022-09-09T11:53:25;0.50;;;0.40;;
15067;SDS011;7633;60.024;18.770;2022-09-09T11:56:05;0.60;;;0.60;;
15067;SDS011;7633;60.024;18.770;2022-09-09T11:58:38;0.82;;;0.60;;
15067;SDS011;7633;60.024;18.770;2022-09-09T12:03:50;1.05;;;0.70;;
15067;SDS011;7633;60.024;18.770;2022-09-09T12:08:49;0.70;;;0.70;;
15067;SDS011;7633;60.024;18.770;2022-09-09T12:11:26;1.15;;;0.60;;
15067;SDS011;7633;60.024;18.770;2022-09-09T12:13:53;2.28;;;0.80;;
15067;SDS011;7633;60.024;18.770;2022-09-09T12:16:35;0.90;;;0.70;;
15067;SDS011;7633;60.024;18.770;2022-09-09T12:19:07;0.70;;;0.52;;
15067;SDS011;7633;60.024;18.770;2022-09-09T12:24:13;0.90;;;0.60;;
15067;SDS011;7633;60.024;18.770;2022-09-09T12:36:55;1.45;;;0.73;;
15067;SDS011;7633;60.024;18.770;2022-09-09T12:39:33;1.40;;;0.88;;
15067;SDS011;7633;60.024;18.770;2022-09-09T12:41:59;1.00;;;0.90;;
15067;SDS011;7633;60.024;18.770;2022-09-09T12:44:25;0.95;;;0.60;;
15067;SDS011;7633;60.024;18.770;2022-09-09T12:46:53;0.88;;;0.60;;
15067;SDS011;7633;60.024;18.770;2022-09-09T12:51:52;0.70;;;0.50;;
15067;SDS011;7633;60.024;18.770;2022-09-09T12:54:18;0.80;;;0.52;;
15067;SDS011;7633;60.024;18.770;2022-09-09T12:56:45;1.58;;;0.60;;
15067;SDS011;7633;60.024;18.770;2022-09-09T12:59:21;1.23;;;0.63;;
15067;SDS011;7633;60.024;18.770;2022-09-09T13:01:54;0.60;;;0.60;;
15067;SDS011;7633;60.024;18.770;2022-09-09T13:04:20;0.77;;;0.60;;
15067;SDS011;7633;60.024;18.770;2022-09-09T13:06:47;0.75;;;0.52;;
15067;SDS011;7633;60.024;18.770;2022-09-09T13:09:14;0.95;;;0.70;;
15067;SDS011;7633;60.024;18.770;2022-09-09T13:11:41;0.65;;;0.50;;
15067;SDS011;7633;60.024;18.770;2022-09-09T13:17:04;1.25;;;0.70;;
15067;SDS011;7633;60.024;18.770;2022-09-09T13:19:32;1.27;;;0.65;;
15067;SDS011;7633;60.024;18.770;2022-09-09T13:21:59;0.70;;;0.70;;
15067;SDS011;7633;60.024;18.770;2022-09-09T13:24:30;1.75;;;0.77;;
15067;SDS011;7633;60.024;18.770;2022-09-09T13:27:00;0.85;;;0.60;;
15067;SDS011;7633;60.024;18.770;2022-09-09T13:29:29;0.68;;;0.68;;
15067;SDS011;7633;60.024;18.770;2022-09-09T13:32:05;0.60;;;0.60;;
15067;SDS011;7633;60.024;18.770;2022-09-09T13:34:32;0.50;;;0.50;;
15067;SDS011;7633;60.024;18.770;2022-09-09T13:37:02;1.85;;;0.77;;
15067;SDS011;7633;60.024;18.770;2022-09-09T13:39:28;1.02;;;0.70;;
15067;SDS011;7633;60.024;18.770;2022-09-09T13:41:54;0.70;;;0.70;;
15067;SDS011;7633;60.024;18.770;2022-09-09T13:44:21;0.60;;;0.60;;
15067;SDS011;7633;60.024;18.770;2022-09-09T13:46:58;1.13;;;0.70;;
15067;SDS011;7633;60.024;18.770;2022-09-09T13:49:24;0.75;;;0.60;;
15067;SDS011;7633;60.024;18.770;2022-09-09T13:52:02;0.70;;;0.70;;
15067;SDS011;7633;60.024;18.770;2022-09-09T13:54:28;1.05;;;0.50;;
15067;SDS011;7633;60.024;18.770;2022-09-09T13:56:56;0.80;;;0.70;;
15067;SDS011;7633;60.024;18.770;2022-09-09T13:59:21;0.57;;;0.57;;
15067;SDS011;7633;60.024;18.770;2022-09-09T14:01:47;1.75;;;0.68;;
15067;SDS011;7633;60.024;18.770;2022-09-09T14:04:14;0.70;;;0.63;;
15067;SDS011;7633;60.024;18.770;2022-09-09T14:06:40;0.77;;;0.65;;
15067;SDS011;7633;60.024;18.770;2022-09-09T14:09:06;1.05;;;0.68;;
15067;SDS011;7633;60.024;18.770;2022-09-09T14:11:32;0.95;;;0.77;;
15067;SDS011;7633;60.024;18.770;2022-09-09T14:13:58;1.10;;;0.80;;
15067;SDS011;7633;60.024;18.770;2022-09-09T14:16:23;1.58;;;0.93;;
15067;SDS011;7633;60.024;18.770;2022-09-09T14:18:49;0.98;;;0.70;;
15067;SDS011;7633;60.024;18.770;2022-09-09T14:21:14;2.63;;;0.77;;
15067;SDS011;7633;60.024;18.770;2022-09-09T14:23:40;0.60;;;0.60;;
15067;SDS011;7633;60.024;18.770;2022-09-09T14:26:06;0.60;;;0.60;;
15067;SDS011;7633;60.024;18.770;2022-09-09T14:28:31;1.27;;;0.70;;
15067;SDS011;7633;60.024;18.770;2022-09-09T14:31:02;1.02;;;0.60;;
15067;SDS011;7633;60.024;18.770;2022-09-09T14:33:27;1.42;;;0.70;;
15067;SDS011;7633;60.024;18.770;2022-09-09T14:35:56;1.85;;;0.80;;
15067;SDS011;7633;60.024;18.770;2022-09-09T14:38:22;1.27;;;0.85;;
15067;SDS011;7633;60.024;18.770;2022-09-09T14:40:47;0.77;;;0.77;;
15067;SDS011;7633;60.024;18.770;2022-09-09T14:43:13;0.80;;;0.80;;
15067;SDS011;7633;60.024;18.770;2022-09-09T14:45:39;0.73;;;0.73;;
15067;SDS011;7633;60.024;18.770;2022-09-09T14:48:04;1.15;;;1.05;;
15067;SDS011;7633;60.024;18.770;2022-09-09T14:50:30;1.45;;;0.90;;
15067;SDS011;7633;60.024;18.770;2022-09-09T14:52:55;0.70;;;0.70;;
15067;SDS011;7633;60.024;18.770;2022-09-09T14:55:20;1.10;;;0.70;;
15067;SDS011;7633;60.024;18.770;2022-09-09T14:57:46;0.88;;;0.88;;
15067;SDS011;7633;60.024;18.770;2022-09-09T15:00:11;1.77;;;0.88;;
15067;SDS011;7633;60.024;18.770;2022-09-09T15:02:38;1.17;;;0.70;;
15067;SDS011;7633;60.024;18.770;2022-09-09T15:05:04;0.55;;;0.50;;
15067;SDS011;7633;60.024;18.770;2022-09-09T15:07:29;0.98;;;0.70;;
15067;SDS011;7633;60.024;18.770;2022-09-09T15:09:57;0.80;;;0.80;;
15067;SDS011;7633;60.024;18.770;2022-09-09T15:12:23;0.90;;;0.60;;
15067;SDS011;7633;60.024;18.770;2022-09-09T15:14:48;0.63;;;0.55;;
15067;SDS011;7633;60.024;18.770;2022-09-09T15:17:15;1.20;;;0.80;;
15067;SDS011;7633;60.024;18.770;2022-09-09T15:19:41;1.30;;;0.60;;
15067;SDS011;7633;60.024;18.770;2022-09-09T15:22:07;1.00;;;0.90;;
15067;SDS011;7633;60.024;18.770;2022-09-09T15:24:33;2.72;;;2.47;;
15067;SDS011;7633;60.024;18.770;2022-09-09T15:26:59;1.90;;;1.75;;
15067;SDS011;7633;60.024;18.770;2022-09-09T15:29:24;1.20;;;0.60;;
15067;SDS011;7633;60.024;18.770;2022-09-09T15:31:50;0.75;;;0.75;;
15067;SDS011;7633;60.024;18.770;2022-09-09T15:34:15;1.38;;;0.95;;
15067;SDS011;7633;60.024;18.770;2022-09-09T15:36:42;1.52;;;1.10;;
15067;SDS011;7633;60.024;18.770;2022-09-09T15:39:08;1.30;;;1.20;;
15067;SDS011;7633;60.024;18.770;2022-09-09T15:41:38;1.77;;;1.20;;
15067;SDS011;7633;60.024;18.770;2022-09-09T15:44:04;1.70;;;1.27;;
15067;SDS011;7633;60.024;18.770;2022-09-09T15:48:58;1.50;;;1.20;;
15067;SDS011;7633;60.024;18.770;2022-09-09T15:51:25;0.87;;;0.87;;
15067;SDS011;7633;60.024;18.770;2022-09-09T15:53:57;0.93;;;0.87;;
15067;SDS011;7633;60.024;18.770;2022-09-09T15:56:23;0.80;;;0.80;;
15067;SDS011;7633;60.024;18.770;2022-09-09T15:58:49;1.20;;;1.00;;
15067;SDS011;7633;60.024;18.770;2022-09-09T16:01:14;1.00;;;0.90;;
15067;SDS011;7633;60.024;18.770;2022-09-09T16:03:41;1.13;;;1.03;;
15067;SDS011;7633;60.024;18.770;2022-09-09T16:06:15;1.23;;;1.13;;
15067;SDS011;7633;60.024;18.770;2022-09-09T16:08:42;1.20;;;1.10;;
15067;SDS011;7633;60.024;18.770;2022-09-09T16:11:08;1.23;;;1.13;;
15067;SDS011;7633;60.024;18.770;2022-09-09T16:13:39;1.53;;;1.40;;
15067;SDS011;7633;60.024;18.770;2022-09-09T16:16:05;2.37;;;1.40;;
15067;SDS011;7633;60.024;18.770;2022-09-09T16:18:50;1.63;;;1.33;;
15067;SDS011;7633;60.024;18.770;2022-09-09T16:21:18;1.90;;;1.40;;
15067;SDS011;7633;60.024;18.770;2022-09-09T16:23:44;3.17;;;1.60;;
15067;SDS011;7633;60.024;18.770;2022-09-09T16:26:14;1.37;;;1.20;;
15067;SDS011;7633;60.024;18.770;2022-09-09T16:28:39;2.70;;;1.40;;
15067;SDS011;7633;60.024;18.770;2022-09-09T16:31:08;1.83;;;1.20;;
15067;SDS011;7633;60.024;18.770;2022-09-09T16:33:35;2.03;;;1.50;;
15067;SDS011;7633;60.024;18.770;2022-09-09T16:36:07;2.53;;;1.63;;
15067;SDS011;7633;60.024;18.770;2022-09-09T16:38:34;2.83;;;2.00;;
15067;SDS011;7633;60.024;18.770;2022-09-09T16:41:01;2.23;;;1.80;;
15067;SDS011;7633;60.024;18.770;2022-09-09T16:43:27;2.90;;;2.03;;
15067;SDS011;7633;60.024;18.770;2022-09-09T16:45:52;3.60;;;2.13;;
15067;SDS011;7633;60.024;18.770;2022-09-09T16:48:18;2.43;;;1.93;;
15067;SDS011;7633;60.024;18.770;2022-09-09T16:50:43;2.37;;;1.60;;
15067;SDS011;7633;60.024;18.770;2022-09-09T16:53:09;2.07;;;1.77;;
15067;SDS011;7633;60.024;18.770;2022-09-09T16:55:39;2.20;;;1.67;;
15067;SDS011;7633;60.024;18.770;2022-09-09T16:58:05;2.33;;;1.63;;
15067;SDS011;7633;60.024;18.770;2022-09-09T17:00:30;2.87;;;1.97;;
15067;SDS011;7633;60.024;18.770;2022-09-09T17:02:55;1.37;;;1.27;;
15067;SDS011;7633;60.024;18.770;2022-09-09T17:05:21;1.87;;;1.10;;
15067;SDS011;7633;60.024;18.770;2022-09-09T17:07:46;1.40;;;1.30;;
15067;SDS011;7633;60.024;18.770;2022-09-09T17:10:12;2.63;;;1.47;;
15067;SDS011;7633;60.024;18.770;2022-09-09T17:12:38;1.40;;;1.20;;